sensor_id;sensor_type;location;lat;lon;timestamp;temperature;humidity
5200;DHT22;2619;47.868;11.892;2023-02-21T00:02:40;5.30;99.90
5200;DHT22;2619;47.868;11.892;2023-02-21T00:05:24;5.10;99.90
5200;DHT22;2619;47.868;11.892;2023-02-21T00:08:08;4.70;99.90
5200;DHT22;2619;47.868;11.892;2023-02-21T00:10:52;4.70;99.90
5200;DHT22;2619;47.868;11.892;2023-02-21T00:13:37;4.60;99.90
5200;DHT22;2619;47.868;11.892;2023-02-21T00:16:21;4.70;99.90
5200;DHT22;2619;47.868;11.892;2023-02-21T00:19:05;4.40;99.90
5200;DHT22;2619;47.868;11.892;2023-02-21T00:21:49;4.20;99.90
5200;DHT22;2619;47.868;11.892;2023-02-21T00:24:34;4.00;99.90
5200;DHT22;2619;47.868;11.892;2023-02-21T00:27:18;3.80;99.90
5200;DHT22;2619;47.868;11.892;2023-02-21T00:30:03;3.80;99.90
5200;DHT22;2619;47.868;11.892;2023-02-21T00:32:48;3.70;99.90
5200;DHT22;2619;47.868;11.892;2023-02-21T00:35:32;3.50;99.90
5200;DHT22;2619;47.868;11.892;2023-02-21T00:38:16;3.40;99.90
5200;DHT22;2619;47.868;11.892;2023-02-21T00:41:00;3.30;99.90
5200;DHT22;2619;47.868;11.892;2023-02-21T00:43:44;3.30;99.90
5200;DHT22;2619;47.868;11.892;2023-02-21T00:46:28;3.20;99.90
5200;DHT22;2619;47.868;11.892;2023-02-21T00:49:12;3.10;99.90
5200;DHT22;2619;47.868;11.892;2023-02-21T00:51:57;3.20;99.90
5200;DHT22;2619;47.868;11.892;2023-02-21T00:54:41;3.20;99.90
5200;DHT22;2619;47.868;11.892;2023-02-21T00:57:25;3.10;99.90
5200;DHT22;2619;47.868;11.892;2023-02-21T01:00:16;3.00;99.90
5200;DHT22;2619;47.868;11.892;2023-02-21T01:03:01;3.00;99.90
5200;DHT22;2619;47.868;11.892;2023-02-21T01:05:44;3.10;99.90
5200;DHT22;2619;47.868;11.892;2023-02-21T01:08:29;3.20;99.90
5200;DHT22;2619;47.868;11.892;2023-02-21T01:11:20;3.30;99.90
5200;DHT22;2619;47.868;11.892;2023-02-21T01:14:06;3.20;99.90
5200;DHT22;2619;47.868;11.892;2023-02-21T01:16:50;3.30;99.90
5200;DHT22;2619;47.868;11.892;2023-02-21T01:19:35;3.30;99.90
5200;DHT22;2619;47.868;11.892;2023-02-21T01:22:19;3.10;99.90
5200;DHT22;2619;47.868;11.892;2023-02-21T01:25:04;2.90;99.90
5200;DHT22;2619;47.868;11.892;2023-02-21T01:27:48;2.80;99.90
5200;DHT22;2619;47.868;11.892;2023-02-21T01:30:32;2.90;99.90
5200;DHT22;2619;47.868;11.892;2023-02-21T01:33:16;2.90;99.90
5200;DHT22;2619;47.868;11.892;2023-02-21T01:36:03;2.80;99.90
5200;DHT22;2619;47.868;11.892;2023-02-21T01:38:48;2.90;99.90
5200;DHT22;2619;47.868;11.892;2023-02-21T01:41:32;3.00;99.90
5200;DHT22;2619;47.868;11.892;2023-02-21T01:44:40;3.00;99.90
5200;DHT22;2619;47.868;11.892;2023-02-21T01:47:25;3.00;99.90
5200;DHT22;2619;47.868;11.892;2023-02-21T01:53:12;2.50;99.90
5200;DHT22;2619;47.868;11.892;2023-02-21T01:55:58;2.20;99.90
5200;DHT22;2619;47.868;11.892;2023-02-21T01:58:44;2.10;99.90
5200;DHT22;2619;47.868;11.892;2023-02-21T02:01:36;2.10;99.90
5200;DHT22;2619;47.868;11.892;2023-02-21T02:04:21;1.90;99.90
5200;DHT22;2619;47.868;11.892;2023-02-21T02:07:05;1.90;99.90
5200;DHT22;2619;47.868;11.892;2023-02-21T02:09:50;1.80;99.90
5200;DHT22;2619;47.868;11.892;2023-02-21T02:15:40;1.90;99.90
5200;DHT22;2619;47.868;11.892;2023-02-21T02:18:28;1.90;99.90
5200;DHT22;2619;47.868;11.892;2023-02-21T02:21:07;2.00;99.90
5200;DHT22;2619;47.868;11.892;2023-02-21T02:23:59;1.90;99.90
5200;DHT22;2619;47.868;11.892;2023-02-21T02:26:37;1.80;99.90
5200;DHT22;2619;47.868;11.892;2023-02-21T02:29:31;1.70;99.90
5200;DHT22;2619;47.868;11.892;2023-02-21T02:37:13;1.40;99.90
5200;DHT22;2619;47.868;11.892;2023-02-21T02:48:04;1.10;99.90
5200;DHT22;2619;47.868;11.892;2023-02-21T02:50:33;1.10;99.90
5200;DHT22;2619;47.868;11.892;2023-02-21T02:53:01;1.10;99.90
5200;DHT22;2619;47.868;11.892;2023-02-21T02:55:35;1.10;99.90
5200;DHT22;2619;47.868;11.892;2023-02-21T02:58:02;1.20;99.90
5200;DHT22;2619;47.868;11.892;2023-02-21T03:00:30;1.10;99.90
5200;DHT22;2619;47.868;11.892;2023-02-21T03:03:05;0.90;99.90
5200;DHT22;2619;47.868;11.892;2023-02-21T03:11:13;1.10;99.90
5200;DHT22;2619;47.868;11.892;2023-02-21T03:16:22;0.70;99.90
5200;DHT22;2619;47.868;11.892;2023-02-21T03:18:53;0.60;99.90
5200;DHT22;2619;47.868;11.892;2023-02-21T03:21:25;0.60;99.90
5200;DHT22;2619;47.868;11.892;2023-02-21T03:23:56;0.70;99.90
5200;DHT22;2619;47.868;11.892;2023-02-21T03:26:23;0.60;99.90
5200;DHT22;2619;47.868;11.892;2023-02-21T03:28:51;0.50;99.90
5200;DHT22;2619;47.868;11.892;2023-02-21T03:31:22;0.50;99.90
5200;DHT22;2619;47.868;11.892;2023-02-21T03:33:48;0.60;99.90
5200;DHT22;2619;47.868;11.892;2023-02-21T03:36:14;0.60;99.90
5200;DHT22;2619;47.868;11.892;2023-02-21T03:38:40;0.40;99.90
5200;DHT22;2619;47.868;11.892;2023-02-21T03:41:07;0.30;99.90
5200;DHT22;2619;47.868;11.892;2023-02-21T03:43:33;0.20;99.90
5200;DHT22;2619;47.868;11.892;2023-02-21T03:45:59;0.30;99.90
5200;DHT22;2619;47.868;11.892;2023-02-21T03:48:24;0.30;99.90
5200;DHT22;2619;47.868;11.892;2023-02-21T03:50:50;0.50;99.90
5200;DHT22;2619;47.868;11.892;2023-02-21T03:53:15;0.50;99.90
5200;DHT22;2619;47.868;11.892;2023-02-21T03:55:41;0.50;99.90
5200;DHT22;2619;47.868;11.892;2023-02-21T03:58:07;0.40;99.90
5200;DHT22;2619;47.868;11.892;2023-02-21T04:00:32;0.40;99.90
5200;DHT22;2619;47.868;11.892;2023-02-21T04:02:58;0.40;99.90
5200;DHT22;2619;47.868;11.892;2023-02-21T04:05:23;0.40;99.90
5200;DHT22;2619;47.868;11.892;2023-02-21T04:07:49;0.30;99.90
5200;DHT22;2619;47.868;11.892;2023-02-21T04:10:15;0.40;99.90
5200;DHT22;2619;47.868;11.892;2023-02-21T04:12:40;0.50;99.90
5200;DHT22;2619;47.868;11.892;2023-02-21T04:15:06;0.50;99.90
5200;DHT22;2619;47.868;11.892;2023-02-21T04:17:32;0.50;99.90
5200;DHT22;2619;47.868;11.892;2023-02-21T04:19:57;0.40;99.90
5200;DHT22;2619;47.868;11.892;2023-02-21T04:22:23;0.30;99.90
5200;DHT22;2619;47.868;11.892;2023-02-21T04:24:48;0.30;99.90
5200;DHT22;2619;47.868;11.892;2023-02-21T04:27:14;0.40;99.90
5200;DHT22;2619;47.868;11.892;2023-02-21T04:29:40;0.40;99.90
5200;DHT22;2619;47.868;11.892;2023-02-21T04:32:05;0.40;99.90
5200;DHT22;2619;47.868;11.892;2023-02-21T04:34:31;0.30;99.90
5200;DHT22;2619;47.868;11.892;2023-02-21T04:36:57;0.30;99.90
5200;DHT22;2619;47.868;11.892;2023-02-21T04:39:22;0.40;99.90
5200;DHT22;2619;47.868;11.892;2023-02-21T04:41:48;0.40;99.90
5200;DHT22;2619;47.868;11.892;2023-02-21T04:44:13;0.40;99.90
5200;DHT22;2619;47.868;11.892;2023-02-21T04:46:39;0.30;99.90
5200;DHT22;2619;47.868;11.892;2023-02-21T04:49:04;0.20;99.90
5200;DHT22;2619;47.868;11.892;2023-02-21T04:51:30;0.10;99.90
5200;DHT22;2619;47.868;11.892;2023-02-21T04:53:56;0.10;99.90
5200;DHT22;2619;47.868;11.892;2023-02-21T04:56:23;0.20;99.90
5200;DHT22;2619;47.868;11.892;2023-02-21T04:58:50;0.10;99.90
5200;DHT22;2619;47.868;11.892;2023-02-21T05:01:18;-0.10;99.90
5200;DHT22;2619;47.868;11.892;2023-02-21T05:03:44;-0.10;99.90
5200;DHT22;2619;47.868;11.892;2023-02-21T05:06:09;-0.20;99.90
5200;DHT22;2619;47.868;11.892;2023-02-21T05:08:35;-0.40;99.90
5200;DHT22;2619;47.868;11.892;2023-02-21T05:11:01;-0.40;99.90
5200;DHT22;2619;47.868;11.892;2023-02-21T05:13:27;-0.40;99.90
5200;DHT22;2619;47.868;11.892;2023-02-21T05:15:53;-0.30;99.90
5200;DHT22;2619;47.868;11.892;2023-02-21T05:18:18;-0.20;99.90
5200;DHT22;2619;47.868;11.892;2023-02-21T05:20:50;-0.20;99.90
5200;DHT22;2619;47.868;11.892;2023-02-21T05:23:17;-0.20;99.90
5200;DHT22;2619;47.868;11.892;2023-02-21T05:25:43;-0.20;99.90
5200;DHT22;2619;47.868;11.892;2023-02-21T05:28:09;-0.20;99.90
5200;DHT22;2619;47.868;11.892;2023-02-21T05:30:35;-0.20;99.90
5200;DHT22;2619;47.868;11.892;2023-02-21T05:33:01;-0.20;99.90
5200;DHT22;2619;47.868;11.892;2023-02-21T05:35:26;-0.20;99.90
5200;DHT22;2619;47.868;11.892;2023-02-21T05:37:52;-0.10;99.90
5200;DHT22;2619;47.868;11.892;2023-02-21T05:40:18;0.00;99.90
5200;DHT22;2619;47.868;11.892;2023-02-21T05:42:43;0.00;99.90
5200;DHT22;2619;47.868;11.892;2023-02-21T05:45:10;-0.10;99.90
5200;DHT22;2619;47.868;11.892;2023-02-21T05:47:37;-0.20;99.90
5200;DHT22;2619;47.868;11.892;2023-02-21T05:50:03;-0.10;99.90
5200;DHT22;2619;47.868;11.892;2023-02-21T05:52:29;-0.10;99.90
5200;DHT22;2619;47.868;11.892;2023-02-21T05:54:54;-0.10;99.90
5200;DHT22;2619;47.868;11.892;2023-02-21T05:57:20;-0.10;99.90
5200;DHT22;2619;47.868;11.892;2023-02-21T05:59:46;0.00;99.90
5200;DHT22;2619;47.868;11.892;2023-02-21T06:02:14;0.10;99.90
5200;DHT22;2619;47.868;11.892;2023-02-21T06:04:40;0.00;99.90
5200;DHT22;2619;47.868;11.892;2023-02-21T06:07:06;0.00;99.90
5200;DHT22;2619;47.868;11.892;2023-02-21T06:09:31;0.00;99.90
5200;DHT22;2619;47.868;11.892;2023-02-21T06:11:57;0.00;99.90
5200;DHT22;2619;47.868;11.892;2023-02-21T06:14:23;0.10;99.90
5200;DHT22;2619;47.868;11.892;2023-02-21T06:16:49;0.10;99.90
5200;DHT22;2619;47.868;11.892;2023-02-21T06:19:16;0.20;99.90
5200;DHT22;2619;47.868;11.892;2023-02-21T06:21:42;0.30;99.90
5200;DHT22;2619;47.868;11.892;2023-02-21T06:24:09;0.40;99.90
5200;DHT22;2619;47.868;11.892;2023-02-21T06:26:35;0.60;99.90
5200;DHT22;2619;47.868;11.892;2023-02-21T06:29:03;0.70;99.90
5200;DHT22;2619;47.868;11.892;2023-02-21T06:31:29;0.70;99.90
5200;DHT22;2619;47.868;11.892;2023-02-21T06:33:55;1.00;99.90
5200;DHT22;2619;47.868;11.892;2023-02-21T06:36:23;1.10;99.90
5200;DHT22;2619;47.868;11.892;2023-02-21T06:38:52;1.10;99.90
5200;DHT22;2619;47.868;11.892;2023-02-21T06:41:21;1.10;99.90
5200;DHT22;2619;47.868;11.892;2023-02-21T06:43:52;1.30;99.90
5200;DHT22;2619;47.868;11.892;2023-02-21T06:46:21;1.40;99.90
5200;DHT22;2619;47.868;11.892;2023-02-21T06:48:47;1.50;99.90
5200;DHT22;2619;47.868;11.892;2023-02-21T06:51:13;1.50;99.90
5200;DHT22;2619;47.868;11.892;2023-02-21T06:53:39;1.70;99.90
5200;DHT22;2619;47.868;11.892;2023-02-21T06:56:06;1.90;99.90
5200;DHT22;2619;47.868;11.892;2023-02-21T06:58:32;2.10;99.90
5200;DHT22;2619;47.868;11.892;2023-02-21T07:00:57;2.40;99.90
5200;DHT22;2619;47.868;11.892;2023-02-21T07:03:23;2.60;99.90
5200;DHT22;2619;47.868;11.892;2023-02-21T07:05:49;2.80;99.90
5200;DHT22;2619;47.868;11.892;2023-02-21T07:08:14;3.00;99.90
5200;DHT22;2619;47.868;11.892;2023-02-21T07:10:40;3.30;99.90
5200;DHT22;2619;47.868;11.892;2023-02-21T07:13:05;3.30;99.90
5200;DHT22;2619;47.868;11.892;2023-02-21T07:15:31;3.50;99.90
5200;DHT22;2619;47.868;11.892;2023-02-21T07:17:57;3.70;99.90
5200;DHT22;2619;47.868;11.892;2023-02-21T07:20:22;3.90;99.90
5200;DHT22;2619;47.868;11.892;2023-02-21T07:22:48;4.10;99.90
5200;DHT22;2619;47.868;11.892;2023-02-21T07:25:16;4.20;99.90
5200;DHT22;2619;47.868;11.892;2023-02-21T07:27:41;4.40;99.90
5200;DHT22;2619;47.868;11.892;2023-02-21T07:30:08;4.60;99.90
5200;DHT22;2619;47.868;11.892;2023-02-21T07:32:34;4.70;99.90
5200;DHT22;2619;47.868;11.892;2023-02-21T07:35:00;4.80;99.90
5200;DHT22;2619;47.868;11.892;2023-02-21T07:37:25;4.90;99.90
5200;DHT22;2619;47.868;11.892;2023-02-21T07:39:52;5.10;99.90
5200;DHT22;2619;47.868;11.892;2023-02-21T07:42:17;5.30;99.90
5200;DHT22;2619;47.868;11.892;2023-02-21T07:44:43;5.50;99.90
5200;DHT22;2619;47.868;11.892;2023-02-21T07:47:08;5.50;99.90
5200;DHT22;2619;47.868;11.892;2023-02-21T07:49:39;5.70;99.90
5200;DHT22;2619;47.868;11.892;2023-02-21T07:52:05;5.90;99.90
5200;DHT22;2619;47.868;11.892;2023-02-21T07:54:31;5.90;99.90
5200;DHT22;2619;47.868;11.892;2023-02-21T07:56:57;6.00;99.90
5200;DHT22;2619;47.868;11.892;2023-02-21T07:59:23;6.20;99.90
5200;DHT22;2619;47.868;11.892;2023-02-21T08:01:49;6.40;99.90
5200;DHT22;2619;47.868;11.892;2023-02-21T08:04:15;6.70;99.90
5200;DHT22;2619;47.868;11.892;2023-02-21T08:06:46;7.00;99.90
5200;DHT22;2619;47.868;11.892;2023-02-21T08:09:12;7.30;99.90
5200;DHT22;2619;47.868;11.892;2023-02-21T08:11:37;7.50;99.90
5200;DHT22;2619;47.868;11.892;2023-02-21T08:14:04;7.60;99.90
5200;DHT22;2619;47.868;11.892;2023-02-21T08:16:30;7.60;99.90
5200;DHT22;2619;47.868;11.892;2023-02-21T08:18:56;7.50;99.90
5200;DHT22;2619;47.868;11.892;2023-02-21T08:21:21;7.50;99.90
5200;DHT22;2619;47.868;11.892;2023-02-21T08:23:47;7.50;99.90
5200;DHT22;2619;47.868;11.892;2023-02-21T08:26:12;7.40;99.90
5200;DHT22;2619;47.868;11.892;2023-02-21T08:28:38;7.30;99.90
5200;DHT22;2619;47.868;11.892;2023-02-21T08:31:04;7.20;99.90
5200;DHT22;2619;47.868;11.892;2023-02-21T08:33:31;7.10;99.90
5200;DHT22;2619;47.868;11.892;2023-02-21T08:35:56;7.10;99.90
5200;DHT22;2619;47.868;11.892;2023-02-21T08:38:22;7.30;99.90
5200;DHT22;2619;47.868;11.892;2023-02-21T08:40:47;7.30;99.90
5200;DHT22;2619;47.868;11.892;2023-02-21T08:43:13;7.40;99.90
5200;DHT22;2619;47.868;11.892;2023-02-21T08:45:38;7.60;99.90
5200;DHT22;2619;47.868;11.892;2023-02-21T08:48:04;7.70;99.90
5200;DHT22;2619;47.868;11.892;2023-02-21T08:50:30;7.90;99.90
5200;DHT22;2619;47.868;11.892;2023-02-21T08:52:56;8.10;99.90
5200;DHT22;2619;47.868;11.892;2023-02-21T08:55:22;8.20;99.90
5200;DHT22;2619;47.868;11.892;2023-02-21T08:57:49;8.40;99.90
5200;DHT22;2619;47.868;11.892;2023-02-21T09:00:16;8.50;99.90
5200;DHT22;2619;47.868;11.892;2023-02-21T09:02:42;8.60;99.90
5200;DHT22;2619;47.868;11.892;2023-02-21T09:05:14;8.80;99.90
5200;DHT22;2619;47.868;11.892;2023-02-21T09:07:40;8.90;99.90
5200;DHT22;2619;47.868;11.892;2023-02-21T09:10:07;9.00;99.90
5200;DHT22;2619;47.868;11.892;2023-02-21T09:12:34;9.00;99.90
5200;DHT22;2619;47.868;11.892;2023-02-21T09:15:00;9.20;99.90
5200;DHT22;2619;47.868;11.892;2023-02-21T09:17:25;9.30;99.90
5200;DHT22;2619;47.868;11.892;2023-02-21T09:19:51;9.40;99.90
5200;DHT22;2619;47.868;11.892;2023-02-21T09:22:16;9.50;99.90
5200;DHT22;2619;47.868;11.892;2023-02-21T09:24:43;9.60;99.90
5200;DHT22;2619;47.868;11.892;2023-02-21T09:27:08;9.70;99.90
5200;DHT22;2619;47.868;11.892;2023-02-21T09:29:35;9.70;99.90
5200;DHT22;2619;47.868;11.892;2023-02-21T09:32:02;9.80;99.90
5200;DHT22;2619;47.868;11.892;2023-02-21T09:34:28;9.90;99.90
5200;DHT22;2619;47.868;11.892;2023-02-21T09:36:54;9.90;99.90
5200;DHT22;2619;47.868;11.892;2023-02-21T09:39:21;9.90;99.90
5200;DHT22;2619;47.868;11.892;2023-02-21T09:41:47;10.10;99.90
5200;DHT22;2619;47.868;11.892;2023-02-21T09:44:16;10.30;99.90
5200;DHT22;2619;47.868;11.892;2023-02-21T09:46:48;10.30;99.90
5200;DHT22;2619;47.868;11.892;2023-02-21T09:51:50;10.60;99.90
5200;DHT22;2619;47.868;11.892;2023-02-21T09:54:36;10.70;99.90
5200;DHT22;2619;47.868;11.892;2023-02-21T09:57:05;10.80;99.90
5200;DHT22;2619;47.868;11.892;2023-02-21T09:59:31;10.90;99.90
5200;DHT22;2619;47.868;11.892;2023-02-21T10:07:17;11.30;99.90
5200;DHT22;2619;47.868;11.892;2023-02-21T10:09:54;11.30;99.90
5200;DHT22;2619;47.868;11.892;2023-02-21T10:12:33;11.40;99.90
5200;DHT22;2619;47.868;11.892;2023-02-21T10:17:59;11.50;99.90
5200;DHT22;2619;47.868;11.892;2023-02-21T10:20:38;11.60;99.90
5200;DHT22;2619;47.868;11.892;2023-02-21T10:23:17;11.80;99.90
5200;DHT22;2619;47.868;11.892;2023-02-21T10:25:45;11.90;99.90
5200;DHT22;2619;47.868;11.892;2023-02-21T10:28:20;12.10;99.90
5200;DHT22;2619;47.868;11.892;2023-02-21T10:30:48;12.30;99.90
5200;DHT22;2619;47.868;11.892;2023-02-21T10:33:14;12.50;99.90
5200;DHT22;2619;47.868;11.892;2023-02-21T10:35:40;12.60;99.90
5200;DHT22;2619;47.868;11.892;2023-02-21T10:38:12;12.60;99.90
5200;DHT22;2619;47.868;11.892;2023-02-21T10:40:43;12.60;99.90
5200;DHT22;2619;47.868;11.892;2023-02-21T10:45:53;12.80;99.90
5200;DHT22;2619;47.868;11.892;2023-02-21T10:48:24;12.70;99.90
5200;DHT22;2619;47.868;11.892;2023-02-21T10:53:36;12.90;99.90
5200;DHT22;2619;47.868;11.892;2023-02-21T11:02:02;12.90;99.90
5200;DHT22;2619;47.868;11.892;2023-02-21T11:06:49;13.20;99.90
5200;DHT22;2619;47.868;11.892;2023-02-21T11:09:33;13.30;99.90
5200;DHT22;2619;47.868;11.892;2023-02-21T11:14:32;13.50;99.90
5200;DHT22;2619;47.868;11.892;2023-02-21T11:17:15;13.60;99.90
5200;DHT22;2619;47.868;11.892;2023-02-21T11:24:18;13.60;99.90
5200;DHT22;2619;47.868;11.892;2023-02-21T11:26:47;13.80;99.90
5200;DHT22;2619;47.868;11.892;2023-02-21T11:29:16;14.00;99.90
5200;DHT22;2619;47.868;11.892;2023-02-21T11:31:43;14.10;99.80
5200;DHT22;2619;47.868;11.892;2023-02-21T11:34:11;14.20;99.90
5200;DHT22;2619;47.868;11.892;2023-02-21T11:36:40;14.20;99.90
5200;DHT22;2619;47.868;11.892;2023-02-21T11:41:52;14.20;99.90
5200;DHT22;2619;47.868;11.892;2023-02-21T11:44:36;14.20;99.90
5200;DHT22;2619;47.868;11.892;2023-02-21T11:47:51;14.30;99.90
5200;DHT22;2619;47.868;11.892;2023-02-21T11:50:25;14.20;99.90
5200;DHT22;2619;47.868;11.892;2023-02-21T11:53:20;14.10;99.90
5200;DHT22;2619;47.868;11.892;2023-02-21T12:01:22;14.50;99.30
5200;DHT22;2619;47.868;11.892;2023-02-21T12:21:19;15.00;98.50
5200;DHT22;2619;47.868;11.892;2023-02-21T12:40:38;15.10;97.70
5200;DHT22;2619;47.868;11.892;2023-02-21T12:46:16;15.30;96.90
5200;DHT22;2619;47.868;11.892;2023-02-21T12:48:56;15.40;96.50
5200;DHT22;2619;47.868;11.892;2023-02-21T12:51:27;15.40;97.50
5200;DHT22;2619;47.868;11.892;2023-02-21T12:54:33;15.50;95.60
5200;DHT22;2619;47.868;11.892;2023-02-21T12:56:58;15.60;94.50
5200;DHT22;2619;47.868;11.892;2023-02-21T12:59:52;15.60;97.40
5200;DHT22;2619;47.868;11.892;2023-02-21T13:05:02;15.40;97.80
5200;DHT22;2619;47.868;11.892;2023-02-21T13:07:36;15.40;98.50
5200;DHT22;2619;47.868;11.892;2023-02-21T13:10:11;15.30;97.60
5200;DHT22;2619;47.868;11.892;2023-02-21T13:15:19;15.20;95.80
5200;DHT22;2619;47.868;11.892;2023-02-21T13:18:07;15.40;98.10
5200;DHT22;2619;47.868;11.892;2023-02-21T13:20:41;15.50;98.80
5200;DHT22;2619;47.868;11.892;2023-02-21T13:23:26;15.50;99.00
5200;DHT22;2619;47.868;11.892;2023-02-21T13:28:23;15.60;98.90
5200;DHT22;2619;47.868;11.892;2023-02-21T13:30:57;15.60;98.50
5200;DHT22;2619;47.868;11.892;2023-02-21T13:33:41;15.60;97.00
5200;DHT22;2619;47.868;11.892;2023-02-21T13:36:45;15.50;95.40
5200;DHT22;2619;47.868;11.892;2023-02-21T13:39:27;15.70;94.90
5200;DHT22;2619;47.868;11.892;2023-02-21T13:42:10;15.70;95.70
5200;DHT22;2619;47.868;11.892;2023-02-21T13:44:45;15.70;99.40
5200;DHT22;2619;47.868;11.892;2023-02-21T13:47:20;15.60;98.90
5200;DHT22;2619;47.868;11.892;2023-02-21T13:49:51;15.60;99.40
5200;DHT22;2619;47.868;11.892;2023-02-21T13:57:44;15.50;98.30
5200;DHT22;2619;47.868;11.892;2023-02-21T14:03:02;15.60;97.50
5200;DHT22;2619;47.868;11.892;2023-02-21T14:08:31;15.90;94.10
5200;DHT22;2619;47.868;11.892;2023-02-21T14:13:44;15.90;93.90
5200;DHT22;2619;47.868;11.892;2023-02-21T14:21:38;16.20;93.60
5200;DHT22;2619;47.868;11.892;2023-02-21T14:24:14;16.00;96.70
5200;DHT22;2619;47.868;11.892;2023-02-21T14:34:13;15.10;98.90
5200;DHT22;2619;47.868;11.892;2023-02-21T14:36:42;15.00;99.00
5200;DHT22;2619;47.868;11.892;2023-02-21T14:39:09;15.00;98.90
5200;DHT22;2619;47.868;11.892;2023-02-21T14:44:11;14.80;98.70
5200;DHT22;2619;47.868;11.892;2023-02-21T14:52:08;14.40;99.30
5200;DHT22;2619;47.868;11.892;2023-02-21T15:00:26;13.90;99.60
5200;DHT22;2619;47.868;11.892;2023-02-21T15:08:18;13.50;99.70
5200;DHT22;2619;47.868;11.892;2023-02-21T15:10:49;13.40;99.80
5200;DHT22;2619;47.868;11.892;2023-02-21T15:13:28;13.30;99.90
5200;DHT22;2619;47.868;11.892;2023-02-21T15:16:01;13.00;99.90
5200;DHT22;2619;47.868;11.892;2023-02-21T15:18:29;12.90;99.90
5200;DHT22;2619;47.868;11.892;2023-02-21T15:21:16;12.70;99.90
5200;DHT22;2619;47.868;11.892;2023-02-21T15:23:47;12.50;99.90
5200;DHT22;2619;47.868;11.892;2023-02-21T15:26:26;12.40;99.90
5200;DHT22;2619;47.868;11.892;2023-02-21T15:29:10;12.10;99.90
5200;DHT22;2619;47.868;11.892;2023-02-21T15:31:49;12.10;99.90
5200;DHT22;2619;47.868;11.892;2023-02-21T15:34:22;12.00;99.90
5200;DHT22;2619;47.868;11.892;2023-02-21T15:37:01;11.70;99.90
5200;DHT22;2619;47.868;11.892;2023-02-21T15:39:32;11.60;99.90
5200;DHT22;2619;47.868;11.892;2023-02-21T15:42:00;11.40;99.90
5200;DHT22;2619;47.868;11.892;2023-02-21T15:44:31;11.30;99.90
5200;DHT22;2619;47.868;11.892;2023-02-21T15:49:42;11.10;99.90
5200;DHT22;2619;47.868;11.892;2023-02-21T15:52:29;11.10;99.90
5200;DHT22;2619;47.868;11.892;2023-02-21T15:57:40;10.90;99.90
5200;DHT22;2619;47.868;11.892;2023-02-21T16:00:28;10.80;99.90
5200;DHT22;2619;47.868;11.892;2023-02-21T16:06:23;10.60;99.90
5200;DHT22;2619;47.868;11.892;2023-02-21T16:19:31;9.80;99.90
5200;DHT22;2619;47.868;11.892;2023-02-21T16:22:36;9.60;99.90
5200;DHT22;2619;47.868;11.892;2023-02-21T16:27:31;9.50;99.90
5200;DHT22;2619;47.868;11.892;2023-02-21T16:29:56;9.50;99.90
5200;DHT22;2619;47.868;11.892;2023-02-21T16:32:22;9.40;99.90
5200;DHT22;2619;47.868;11.892;2023-02-21T16:34:50;9.20;99.90
5200;DHT22;2619;47.868;11.892;2023-02-21T16:37:16;9.10;99.90
5200;DHT22;2619;47.868;11.892;2023-02-21T16:39:41;9.00;99.90
5200;DHT22;2619;47.868;11.892;2023-02-21T16:42:07;8.80;99.90
5200;DHT22;2619;47.868;11.892;2023-02-21T16:44:33;8.60;99.90
5200;DHT22;2619;47.868;11.892;2023-02-21T16:46:58;8.40;99.90
5200;DHT22;2619;47.868;11.892;2023-02-21T16:49:24;8.30;99.90
5200;DHT22;2619;47.868;11.892;2023-02-21T16:51:50;8.20;99.90
5200;DHT22;2619;47.868;11.892;2023-02-21T16:54:15;7.90;99.90
5200;DHT22;2619;47.868;11.892;2023-02-21T16:56:44;7.90;99.90
5200;DHT22;2619;47.868;11.892;2023-02-21T16:59:13;7.80;99.90
5200;DHT22;2619;47.868;11.892;2023-02-21T17:01:40;7.80;99.90
5200;DHT22;2619;47.868;11.892;2023-02-21T17:04:13;7.80;99.90
5200;DHT22;2619;47.868;11.892;2023-02-21T17:06:39;7.70;99.90
5200;DHT22;2619;47.868;11.892;2023-02-21T17:09:05;7.50;99.90
5200;DHT22;2619;47.868;11.892;2023-02-21T17:11:30;7.40;99.90
5200;DHT22;2619;47.868;11.892;2023-02-21T17:13:56;7.30;99.90
5200;DHT22;2619;47.868;11.892;2023-02-21T17:16:21;7.20;99.90
5200;DHT22;2619;47.868;11.892;2023-02-21T17:18:47;7.20;99.90
5200;DHT22;2619;47.868;11.892;2023-02-21T17:21:12;7.20;99.90
5200;DHT22;2619;47.868;11.892;2023-02-21T17:23:38;7.20;99.90
5200;DHT22;2619;47.868;11.892;2023-02-21T17:26:04;7.10;99.90
5200;DHT22;2619;47.868;11.892;2023-02-21T17:28:29;7.00;99.90
5200;DHT22;2619;47.868;11.892;2023-02-21T17:30:55;6.90;99.90
5200;DHT22;2619;47.868;11.892;2023-02-21T17:33:21;6.70;99.90
5200;DHT22;2619;47.868;11.892;2023-02-21T17:35:46;6.50;99.90
5200;DHT22;2619;47.868;11.892;2023-02-21T17:38:12;6.30;99.90
5200;DHT22;2619;47.868;11.892;2023-02-21T17:40:37;6.20;99.90
5200;DHT22;2619;47.868;11.892;2023-02-21T17:43:03;6.20;99.90
5200;DHT22;2619;47.868;11.892;2023-02-21T17:45:33;6.30;99.90
5200;DHT22;2619;47.868;11.892;2023-02-21T17:48:00;6.30;99.90
5200;DHT22;2619;47.868;11.892;2023-02-21T17:50:28;6.20;99.90
5200;DHT22;2619;47.868;11.892;2023-02-21T17:52:54;6.10;99.90
5200;DHT22;2619;47.868;11.892;2023-02-21T17:55:21;6.00;99.90
5200;DHT22;2619;47.868;11.892;2023-02-21T17:57:49;6.00;99.90
5200;DHT22;2619;47.868;11.892;2023-02-21T18:00:24;5.90;99.90
5200;DHT22;2619;47.868;11.892;2023-02-21T18:02:51;5.90;99.90
5200;DHT22;2619;47.868;11.892;2023-02-21T18:05:17;5.80;99.90
5200;DHT22;2619;47.868;11.892;2023-02-21T18:07:52;5.90;99.90
5200;DHT22;2619;47.868;11.892;2023-02-21T18:10:19;5.90;99.90
5200;DHT22;2619;47.868;11.892;2023-02-21T18:12:45;5.90;99.90
5200;DHT22;2619;47.868;11.892;2023-02-21T18:15:11;5.80;99.90
5200;DHT22;2619;47.868;11.892;2023-02-21T18:17:37;5.90;99.90
5200;DHT22;2619;47.868;11.892;2023-02-21T18:20:03;5.60;99.90
5200;DHT22;2619;47.868;11.892;2023-02-21T18:22:29;5.40;99.90
5200;DHT22;2619;47.868;11.892;2023-02-21T18:24:55;5.20;99.90
5200;DHT22;2619;47.868;11.892;2023-02-21T18:27:20;5.10;99.90
5200;DHT22;2619;47.868;11.892;2023-02-21T18:29:46;5.00;99.90
5200;DHT22;2619;47.868;11.892;2023-02-21T18:32:12;5.00;99.90
5200;DHT22;2619;47.868;11.892;2023-02-21T18:34:37;4.90;99.90
5200;DHT22;2619;47.868;11.892;2023-02-21T18:37:03;4.80;99.90
5200;DHT22;2619;47.868;11.892;2023-02-21T18:39:29;4.80;99.90
5200;DHT22;2619;47.868;11.892;2023-02-21T18:41:54;4.90;99.90
5200;DHT22;2619;47.868;11.892;2023-02-21T18:44:20;4.80;99.90
5200;DHT22;2619;47.868;11.892;2023-02-21T18:46:50;4.80;99.90
5200;DHT22;2619;47.868;11.892;2023-02-21T18:49:19;4.60;99.90
5200;DHT22;2619;47.868;11.892;2023-02-21T18:51:44;4.50;99.90
5200;DHT22;2619;47.868;11.892;2023-02-21T18:54:10;4.40;99.90
5200;DHT22;2619;47.868;11.892;2023-02-21T18:56:35;4.30;99.90
5200;DHT22;2619;47.868;11.892;2023-02-21T18:59:01;4.40;99.90
5200;DHT22;2619;47.868;11.892;2023-02-21T19:01:26;4.30;99.90
5200;DHT22;2619;47.868;11.892;2023-02-21T19:03:53;4.20;99.90
5200;DHT22;2619;47.868;11.892;2023-02-21T19:06:20;4.10;99.90
5200;DHT22;2619;47.868;11.892;2023-02-21T19:08:47;4.00;99.90
5200;DHT22;2619;47.868;11.892;2023-02-21T19:11:15;3.90;99.90
5200;DHT22;2619;47.868;11.892;2023-02-21T19:13:41;3.80;99.90
5200;DHT22;2619;47.868;11.892;2023-02-21T19:16:15;3.90;99.90
5200;DHT22;2619;47.868;11.892;2023-02-21T19:18:41;3.80;99.90
5200;DHT22;2619;47.868;11.892;2023-02-21T19:21:07;3.70;99.90
5200;DHT22;2619;47.868;11.892;2023-02-21T19:23:40;3.80;99.90